Wallsend, United Kingdom
Current Conditions -  °F | °C
As of 6:50 PM on Wednesday 26 Nov 2014 (Local Time) from EGNT Reporting Station
Light Rain Light Rain  
Wind Chill:   Ceiling: 2000
Heat Index:   Visibility: 1.2mi
Dew Point:   Wind: 0mph
Humidity: 100%   Direction: NA
Pressure: 29.83"   Gusts: NA
Location:  54.99°N, 1.53°W
Report Text: EGNT 261850Z 00000KT 2000 -RA BR SCT010 BKN020 06/06 Q1010
Loading
Personal Weather Stations






























Interactive Weather Map New forecast layout! Learn more

10-Day Weather Forecast

Advertisements
Track Severe Weather on mobile